Karachi Weather



Karachi's Current Weather

Temprature 27.9o smoke

smoke

Rain: 0 %

Min Temprature27.9o
Max Temprature27.9o
Humidity83
Wind Speed5.14 m/h
Sun Rise05:44:11
Sun Set19:13:05
Current Time: 24-May-2022 07:38:44
Lat/Lon: 24.9056, 67.0822




Karachi's Geo Location



Karachi's Weather Forecast

Time Overall Temp Min Temp Max Temp Humidity Wind Speed Rain
24-May-2022 (Tue)
08:00:00 clear sky 27.900 27.900 28.890 83 8.1 m/h 0 %
11:00:00 clear sky 29.510 29.510 32.720 74 6.9 m/h 0 %
14:00:00 clear sky 32.200 32.200 34.350 61 6.95 m/h 0 %
17:00:00 clear sky 32.130 32.130 32.130 61 8.71 m/h 0 %
20:00:00 clear sky 28.610 28.610 28.610 82 6.68 m/h 0 %
23:00:00 few clouds 28.460 28.460 28.460 80 6.53 m/h 0 %
25-May-2022 (Wed)
02:00:00 broken clouds 28.260 28.260 28.260 77 5.59 m/h 0 %
05:00:00 broken clouds 27.760 27.760 27.760 78 5.86 m/h 0 %
08:00:00 scattered clouds 28.870 28.870 28.870 71 5.98 m/h 0 %
11:00:00 scattered clouds 31.730 31.730 31.730 60 7.58 m/h 0 %
14:00:00 clear sky 32.610 32.610 32.610 58 9.15 m/h 0 %
17:00:00 clear sky 31.210 31.210 31.210 65 9.06 m/h 0 %
20:00:00 clear sky 28.580 28.580 28.580 79 7.33 m/h 0 %
23:00:00 clear sky 27.880 27.880 27.880 83 7.55 m/h 0 %
26-May-2022 (Thu)
02:00:00 few clouds 27.410 27.410 27.410 85 8.12 m/h 0 %
05:00:00 few clouds 27.220 27.220 27.220 84 7.96 m/h 0 %
08:00:00 broken clouds 28.650 28.650 28.650 74 9.01 m/h 0 %
11:00:00 scattered clouds 31.380 31.380 31.380 62 10.52 m/h 0 %
14:00:00 few clouds 31.900 31.900 31.900 63 11.31 m/h 0 %
17:00:00 clear sky 30.470 30.470 30.470 68 10.99 m/h 0 %
20:00:00 clear sky 28.390 28.390 28.390 80 9.02 m/h 0 %
23:00:00 scattered clouds 28.420 28.420 28.420 78 9.14 m/h 0 %
27-May-2022 (Fri)
02:00:00 broken clouds 27.990 27.990 27.990 80 10 m/h 0 %
05:00:00 broken clouds 27.750 27.750 27.750 81 10.02 m/h 0 %
08:00:00 scattered clouds 28.820 28.820 28.820 78 10.81 m/h 0 %
11:00:00 few clouds 31.390 31.390 31.390 65 11.88 m/h 0 %
14:00:00 clear sky 32.020 32.020 32.020 64 11.56 m/h 0 %
17:00:00 clear sky 30.660 30.660 30.660 69 10.53 m/h 0 %
20:00:00 clear sky 28.430 28.430 28.430 82 8.19 m/h 0 %
23:00:00 few clouds 27.900 27.900 27.900 86 8.67 m/h 0 %
28-May-2022 (Sat)
02:00:00 scattered clouds 27.770 27.770 27.770 86 10.07 m/h 0 %
05:00:00 broken clouds 27.960 27.960 27.960 85 8.91 m/h 0 %
08:00:00 broken clouds 28.970 28.970 28.970 81 9.12 m/h 0 %
11:00:00 scattered clouds 32.060 32.060 32.060 66 9.41 m/h 0 %
14:00:00 clear sky 33.430 33.430 33.430 58 9.89 m/h 0 %
17:00:00 clear sky 31.790 31.790 31.790 63 10.08 m/h 0 %
20:00:00 clear sky 28.780 28.780 28.780 81 8.88 m/h 0 %
23:00:00 clear sky 28.020 28.020 28.020 87 9.47 m/h 0 %
29-May-2022 (Sun)
02:00:00 scattered clouds 27.560 27.560 27.560 89 9.03 m/h 0 %
05:00:00 scattered clouds 27.410 27.410 27.410 89 7.44 m/h 0 %

Famous Cities (61)